createdAt,value
2023-02-19T00:06:54.386Z,9.25
2023-02-19T00:09:22.817Z,14.52
2023-02-19T00:14:22.642Z,9.82
2023-02-19T00:16:51.367Z,15.73
2023-02-19T00:19:21.332Z,14.05
2023-02-19T00:21:51.894Z,13.27
2023-02-19T00:24:20.968Z,11.30
2023-02-19T00:26:49.616Z,16.25
2023-02-19T00:29:21.661Z,10.98
2023-02-19T00:31:51.138Z,12.70
2023-02-19T00:34:20.197Z,12.18
2023-02-19T00:36:48.718Z,10.30
2023-02-19T00:39:18.842Z,11.38
2023-02-19T00:41:47.695Z,12.38
2023-02-19T00:44:16.612Z,14.77
2023-02-19T00:46:48.760Z,15.60
2023-02-19T00:49:20.575Z,10.02
2023-02-19T00:51:49.623Z,11.95
2023-02-19T00:54:18.672Z,15.23
2023-02-19T00:56:47.402Z,13.98
2023-02-19T00:59:16.349Z,15.02
2023-02-19T01:01:46.561Z,12.70
2023-02-19T01:04:16.562Z,10.43
2023-02-19T01:06:45.229Z,8.80
2023-02-19T01:09:13.835Z,12.80
2023-02-19T01:11:43.042Z,15.85
2023-02-19T01:14:12.076Z,13.43
2023-02-19T01:16:40.508Z,7.65
2023-02-19T01:19:10.385Z,11.63
2023-02-19T01:21:38.819Z,11.23
2023-02-19T01:26:35.741Z,11.55
2023-02-19T01:29:05.902Z,12.07
2023-02-19T01:31:36.619Z,10.48
2023-02-19T01:34:06.571Z,11.80
2023-02-19T01:36:37.442Z,14.43
2023-02-19T01:39:07.612Z,7.07
2023-02-19T01:41:40.224Z,13.90
2023-02-19T01:44:29.902Z,11.35
2023-02-19T01:46:58.908Z,11.05
2023-02-19T01:49:30.584Z,13.93
2023-02-19T01:52:03.414Z,8.82
2023-02-19T01:54:38.353Z,11.05
2023-02-19T01:57:12.475Z,12.23
2023-02-19T01:59:41.781Z,14.63
2023-02-19T02:02:11.165Z,13.50
2023-02-19T02:04:40.016Z,7.10
2023-02-19T02:07:24.457Z,11.48
2023-02-19T02:10:11.057Z,11.43
2023-02-19T02:12:39.506Z,8.85
2023-02-19T02:17:42.501Z,10.68
2023-02-19T02:20:33.656Z,9.02
2023-02-19T02:23:12.308Z,11.50
2023-02-19T02:26:08.761Z,8.63
2023-02-19T02:29:01.986Z,10.30
2023-02-19T02:31:40.713Z,8.77
2023-02-19T02:34:16.081Z,14.75
2023-02-19T02:36:47.073Z,10.85
2023-02-19T02:39:21.063Z,10.13
2023-02-19T02:42:14.225Z,9.77
2023-02-19T02:45:06.753Z,9.68
2023-02-19T02:47:46.006Z,11.25
2023-02-19T02:50:20.483Z,10.52
2023-02-19T02:53:09.468Z,9.68
2023-02-19T02:55:42.473Z,11.82
2023-02-19T02:58:13.291Z,13.93
2023-02-19T03:01:04.924Z,8.95
2023-02-19T03:03:37.211Z,10.80
2023-02-19T03:06:08.261Z,7.05
2023-02-19T03:08:40.335Z,15.88
2023-02-19T03:11:28.691Z,14.63
2023-02-19T03:14:29.291Z,10.48
2023-02-19T03:17:19.141Z,12.65
2023-02-19T03:19:52.317Z,6.97
2023-02-19T03:22:26.893Z,10.57
2023-02-19T03:25:18.540Z,9.10
2023-02-19T03:27:49.274Z,10.20
2023-02-19T03:30:21.700Z,12.07
2023-02-19T03:32:55.029Z,12.93
2023-02-19T03:35:28.774Z,10.88
2023-02-19T03:38:05.076Z,14.50
2023-02-19T03:40:44.652Z,9.47
2023-02-19T03:43:20.117Z,9.48
2023-02-19T03:45:57.828Z,12.95
2023-02-19T03:48:34.540Z,8.88
2023-02-19T03:51:21.792Z,12.20
2023-02-19T03:54:00.354Z,16.83
2023-02-19T03:59:03.542Z,12.35
2023-02-19T04:01:39.643Z,7.95
2023-02-19T04:04:15.814Z,12.93
2023-02-19T04:06:52.737Z,14.10
2023-02-19T04:09:22.958Z,11.77
2023-02-19T04:12:00.583Z,8.75
2023-02-19T04:14:34.487Z,9.48
2023-02-19T04:17:06.312Z,14.82
2023-02-19T04:19:38.955Z,8.63
2023-02-19T04:22:10.644Z,13.05
2023-02-19T04:24:42.645Z,12.23
2023-02-19T04:27:11.547Z,10.90
2023-02-19T04:29:40.019Z,12.02
2023-02-19T04:32:08.610Z,9.32
2023-02-19T04:34:37.015Z,10.00
2023-02-19T04:37:05.401Z,9.95
2023-02-19T04:42:03.638Z,9.18
2023-02-19T04:44:32.026Z,6.50
2023-02-19T04:47:00.508Z,12.73
2023-02-19T04:49:29.100Z,9.23
2023-02-19T04:51:57.719Z,11.55
2023-02-19T04:54:26.275Z,9.15
2023-02-19T04:56:57.620Z,12.63
2023-02-19T04:59:26.168Z,8.65
2023-02-19T05:04:24.059Z,11.07
2023-02-19T05:06:52.642Z,9.60
2023-02-19T05:09:21.395Z,8.18
2023-02-19T05:11:49.862Z,9.80
2023-02-19T05:16:47.805Z,9.65
2023-02-19T05:21:44.286Z,9.98
2023-02-19T05:29:08.940Z,11.40
2023-02-19T05:34:07.125Z,11.13
2023-02-19T05:36:37.583Z,7.72
2023-02-19T05:39:07.459Z,11.32
2023-02-19T05:41:35.847Z,11.23
2023-02-19T05:46:32.890Z,12.27
2023-02-19T05:49:03.409Z,11.63
2023-02-19T05:51:32.143Z,10.00
2023-02-19T05:54:00.593Z,14.40
2023-02-19T05:56:33.093Z,10.18
2023-02-19T05:59:03.992Z,9.70
2023-02-19T06:01:32.584Z,10.90
2023-02-19T06:06:30.758Z,11.93
2023-02-19T06:18:52.046Z,7.50
2023-02-19T06:21:22.185Z,8.98
2023-02-19T06:23:50.862Z,8.75
2023-02-19T06:26:22.121Z,11.25
2023-02-19T06:28:52.694Z,7.68
2023-02-19T06:31:23.073Z,10.48
2023-02-19T06:33:51.858Z,9.40
2023-02-19T06:36:22.710Z,8.43
2023-02-19T06:38:51.401Z,8.65
2023-02-19T06:41:20.398Z,8.98
2023-02-19T06:43:48.876Z,10.50
2023-02-19T06:51:15.896Z,5.60
2023-02-19T06:53:46.169Z,10.18
2023-02-19T06:56:26.056Z,13.88
2023-02-19T06:58:55.409Z,7.65
2023-02-19T07:01:24.813Z,8.10
2023-02-19T07:03:53.859Z,6.85
2023-02-19T07:06:29.531Z,8.45
2023-02-19T07:09:00.825Z,10.20
2023-02-19T07:11:32.639Z,7.72
2023-02-19T07:14:03.829Z,9.02
2023-02-19T07:16:32.841Z,9.95
2023-02-19T07:19:02.178Z,8.30
2023-02-19T07:21:31.975Z,11.65
2023-02-19T07:24:01.786Z,13.82
2023-02-19T07:26:30.423Z,6.75
2023-02-19T07:36:25.392Z,8.90
2023-02-19T07:38:57.945Z,10.23
2023-02-19T07:41:29.227Z,7.47
2023-02-19T07:44:00.217Z,10.30
2023-02-19T07:46:30.332Z,10.57
2023-02-19T07:48:59.303Z,10.65
2023-02-19T07:51:27.928Z,12.07
2023-02-19T07:53:56.451Z,12.85
2023-02-19T07:58:54.581Z,10.15
2023-02-19T08:01:45.408Z,7.63
2023-02-19T08:04:14.240Z,9.88
2023-02-19T08:06:43.926Z,9.25
2023-02-19T08:09:12.881Z,12.75
2023-02-19T08:11:58.896Z,14.25
2023-02-19T08:14:29.523Z,9.95
2023-02-19T08:16:58.302Z,8.80
2023-02-19T08:19:26.889Z,7.32
2023-02-19T08:21:55.489Z,10.63
2023-02-19T08:29:21.850Z,11.85
2023-02-19T08:31:51.737Z,9.15
2023-02-19T08:34:20.207Z,10.27
2023-02-19T08:36:48.614Z,10.23
2023-02-19T08:39:21.197Z,10.48
2023-02-19T08:41:50.657Z,10.23
2023-02-19T08:44:19.123Z,9.50
2023-02-19T08:49:17.765Z,11.43
2023-02-19T08:51:46.323Z,9.23
2023-02-19T08:56:43.369Z,7.30
2023-02-19T08:59:13.352Z,13.13
2023-02-19T09:01:44.755Z,11.98
2023-02-19T09:04:14.599Z,11.27
2023-02-19T09:06:44.447Z,9.57
2023-02-19T09:09:13.101Z,11.70
2023-02-19T09:11:41.721Z,12.55
2023-02-19T09:14:10.231Z,10.70
2023-02-19T09:19:07.294Z,8.10
2023-02-19T09:24:05.908Z,13.35
2023-02-19T09:26:37.725Z,12.93
2023-02-19T09:29:07.212Z,16.58
2023-02-19T09:34:04.188Z,12.95
2023-02-19T09:39:02.503Z,9.80
2023-02-19T09:41:33.630Z,9.02
2023-02-19T09:44:05.535Z,9.88
2023-02-19T09:46:37.429Z,11.18
2023-02-19T09:49:08.500Z,10.05
2023-02-19T09:51:39.284Z,7.90
2023-02-19T09:54:14.086Z,10.88
2023-02-19T09:56:44.132Z,9.02
2023-02-19T09:59:20.849Z,9.75
2023-02-19T10:01:53.397Z,13.55
2023-02-19T10:04:21.973Z,12.10
2023-02-19T10:06:51.250Z,12.00
2023-02-19T10:09:26.053Z,12.05
2023-02-19T10:11:58.888Z,11.50
2023-02-19T10:14:35.568Z,8.63
2023-02-19T10:17:07.408Z,11.27
2023-02-19T10:19:37.455Z,9.43
2023-02-19T10:22:06.266Z,9.85
2023-02-19T10:24:35.906Z,11.57
2023-02-19T10:27:11.762Z,12.13
2023-02-19T10:29:40.545Z,10.75
2023-02-19T10:32:21.389Z,12.65
2023-02-19T10:34:50.162Z,14.40
2023-02-19T10:37:22.697Z,11.43
2023-02-19T10:39:52.215Z,12.23
2023-02-19T10:42:24.302Z,13.68
2023-02-19T10:44:58.693Z,9.82
2023-02-19T10:47:31.218Z,12.85
2023-02-19T10:50:04.396Z,19.27
2023-02-19T10:52:35.412Z,15.38
2023-02-19T10:55:18.564Z,12.40
2023-02-19T10:57:50.681Z,14.50
2023-02-19T11:00:26.893Z,13.38
2023-02-19T11:03:15.422Z,11.90
2023-02-19T11:05:56.882Z,11.98
2023-02-19T11:08:26.050Z,15.30
2023-02-19T11:10:54.667Z,18.08
2023-02-19T11:15:57.510Z,13.93
2023-02-19T11:18:28.409Z,12.80
2023-02-19T11:20:58.873Z,14.40
2023-02-19T11:23:30.866Z,12.38
2023-02-19T11:26:02.846Z,13.50
2023-02-19T11:28:38.475Z,15.88
2023-02-19T11:31:27.762Z,17.45
2023-02-19T11:33:59.021Z,13.00
2023-02-19T11:36:31.364Z,14.70
2023-02-19T11:39:03.919Z,10.88
2023-02-19T11:41:57.252Z,15.18
2023-02-19T11:44:36.548Z,13.27
2023-02-19T11:47:35.306Z,15.98
2023-02-19T11:50:16.438Z,16.10
2023-02-19T11:52:57.519Z,10.30
2023-02-19T11:55:39.077Z,12.65
2023-02-19T11:58:26.784Z,15.30
2023-02-19T12:01:04.956Z,12.55
2023-02-19T12:03:51.238Z,14.02
2023-02-19T12:06:29.762Z,9.30
2023-02-19T12:09:13.773Z,10.20
2023-02-19T12:12:06.424Z,14.25
2023-02-19T12:15:00.551Z,13.25
2023-02-19T12:17:57.970Z,12.30
2023-02-19T12:20:32.747Z,12.40
2023-02-19T12:23:25.535Z,12.18
2023-02-19T12:26:02.428Z,10.68
2023-02-19T12:28:50.073Z,19.15
2023-02-19T12:31:42.753Z,13.13
2023-02-19T12:34:54.985Z,11.07
2023-02-19T12:37:35.181Z,14.80
2023-02-19T12:40:31.122Z,8.77
2023-02-19T12:43:12.424Z,11.27
2023-02-19T12:45:47.043Z,12.18
2023-02-19T12:48:25.917Z,9.05
2023-02-19T12:51:00.967Z,14.20
2023-02-19T12:53:40.797Z,16.13
2023-02-19T12:56:15.249Z,10.88
2023-02-19T12:58:48.254Z,10.80
2023-02-19T13:01:23.637Z,14.93
2023-02-19T13:04:02.004Z,14.25
2023-02-19T13:09:13.260Z,10.27
2023-02-19T13:11:45.826Z,12.82
2023-02-19T13:14:22.938Z,16.70
2023-02-19T13:16:58.842Z,12.32
2023-02-19T13:19:27.392Z,14.65
2023-02-19T13:24:52.049Z,14.88
2023-02-19T13:27:40.098Z,12.93
2023-02-19T13:30:25.049Z,12.10
2023-02-19T13:33:04.402Z,14.88
2023-02-19T13:36:06.194Z,11.88
2023-02-19T13:38:39.913Z,14.18
2023-02-19T13:41:18.624Z,17.48
2023-02-19T13:43:48.270Z,17.67
2023-02-19T13:46:18.762Z,13.40
2023-02-19T13:48:47.257Z,15.90
2023-02-19T13:51:41.382Z,11.98
2023-02-19T13:54:27.785Z,16.27
2023-02-19T13:57:31.864Z,14.13
2023-02-19T14:00:00.802Z,13.63
2023-02-19T14:02:35.343Z,16.20
2023-02-19T14:05:07.665Z,17.77
2023-02-19T14:07:50.773Z,17.05
2023-02-19T14:11:03.397Z,17.13
2023-02-19T14:14:01.739Z,17.42
2023-02-19T14:16:32.285Z,20.30
2023-02-19T14:19:00.826Z,14.77
2023-02-19T14:24:05.760Z,16.52
2023-02-19T14:26:35.901Z,26.52
2023-02-19T14:29:10.624Z,17.20
2023-02-19T14:31:40.012Z,20.65
2023-02-19T14:34:22.552Z,20.52
2023-02-19T14:36:53.209Z,19.40
2023-02-19T14:39:25.378Z,15.60
2023-02-19T14:41:57.563Z,18.33
2023-02-19T14:44:31.049Z,24.20
2023-02-19T14:47:04.331Z,19.13
2023-02-19T14:49:42.760Z,17.75
2023-02-19T14:54:48.572Z,19.38
2023-02-19T14:57:22.351Z,19.27
2023-02-19T14:59:58.380Z,17.17
2023-02-19T15:02:28.140Z,14.63
2023-02-19T15:04:56.939Z,16.33
2023-02-19T15:07:30.041Z,18.73
2023-02-19T15:10:05.071Z,13.10
2023-02-19T15:12:37.444Z,18.45
2023-02-19T15:15:08.710Z,15.52
2023-02-19T15:17:40.140Z,19.02
2023-02-19T15:20:13.924Z,21.27
2023-02-19T15:22:42.870Z,22.48
2023-02-19T15:25:18.927Z,21.63
2023-02-19T15:27:47.850Z,25.40
2023-02-19T15:30:29.791Z,21.75
2023-02-19T15:32:59.763Z,19.92
2023-02-19T15:35:30.161Z,16.38
2023-02-19T15:37:58.719Z,19.55
2023-02-19T15:43:00.523Z,22.98
2023-02-19T15:45:37.925Z,16.35
2023-02-19T15:48:12.957Z,17.88
2023-02-19T15:50:46.263Z,17.85
2023-02-19T15:53:18.360Z,16.50
2023-02-19T15:55:50.929Z,17.88
2023-02-19T15:58:24.114Z,17.73
2023-02-19T16:00:57.057Z,20.42
2023-02-19T16:03:27.318Z,19.42
2023-02-19T16:06:06.275Z,17.92
2023-02-19T16:08:36.613Z,17.33
2023-02-19T16:11:07.541Z,16.38
2023-02-19T16:13:36.573Z,17.42
2023-02-19T16:16:16.297Z,17.25
2023-02-19T16:18:47.928Z,16.17
2023-02-19T16:21:18.335Z,19.02
2023-02-19T16:23:49.773Z,12.82
2023-02-19T16:26:19.141Z,17.30
2023-02-19T16:28:53.052Z,15.35
2023-02-19T16:31:25.199Z,14.55
2023-02-19T16:33:54.000Z,19.95
2023-02-19T16:36:38.367Z,18.45
2023-02-19T16:39:26.367Z,18.48
2023-02-19T16:42:16.016Z,20.20
2023-02-19T16:44:45.950Z,18.08
2023-02-19T16:47:26.433Z,15.15
2023-02-19T16:49:55.759Z,15.02
2023-02-19T16:52:24.276Z,14.30
2023-02-19T16:57:21.869Z,16.55
2023-02-19T16:59:50.655Z,16.27
2023-02-19T17:02:25.723Z,17.90
2023-02-19T17:04:55.994Z,17.35
2023-02-19T17:07:26.258Z,13.20
2023-02-19T17:09:55.538Z,18.25
2023-02-19T17:12:24.717Z,18.42
2023-02-19T17:14:53.348Z,19.00
2023-02-19T17:17:23.591Z,20.27
2023-02-19T17:19:52.542Z,25.52
2023-02-19T17:22:21.274Z,17.27
2023-02-19T17:24:50.022Z,18.85
2023-02-19T17:27:18.666Z,19.85
2023-02-19T17:29:47.380Z,19.45
2023-02-19T17:32:16.399Z,22.58
2023-02-19T17:34:49.768Z,15.95
2023-02-19T17:37:18.930Z,15.23
2023-02-19T17:39:48.068Z,18.15
2023-02-19T17:42:16.840Z,17.23
2023-02-19T17:44:46.877Z,21.85
2023-02-19T17:47:16.476Z,21.35
2023-02-19T17:49:46.716Z,19.23
2023-02-19T17:52:17.910Z,21.90
2023-02-19T17:54:46.654Z,15.48
2023-02-19T17:57:15.803Z,21.33
2023-02-19T17:59:44.924Z,22.27
2023-02-19T18:02:13.500Z,21.95
2023-02-19T18:04:42.143Z,19.23
2023-02-19T18:07:12.179Z,21.00
2023-02-19T18:09:41.382Z,21.38
2023-02-19T18:12:10.480Z,19.85
2023-02-19T18:14:39.186Z,24.85
2023-02-19T18:17:07.678Z,20.90
2023-02-19T18:19:36.209Z,20.33
2023-02-19T18:24:36.554Z,16.27
2023-02-19T18:27:05.402Z,22.02
2023-02-19T18:29:35.151Z,22.25
2023-02-19T18:32:03.870Z,17.65
2023-02-19T18:34:32.549Z,22.25
2023-02-19T18:37:01.153Z,23.55
2023-02-19T18:39:29.605Z,21.92
2023-02-19T18:44:28.114Z,17.50
2023-02-19T18:46:56.767Z,20.48
2023-02-19T18:49:26.011Z,26.30
2023-02-19T18:51:54.708Z,17.55
2023-02-19T18:54:24.328Z,27.85
2023-02-19T18:56:53.546Z,24.88
2023-02-19T18:59:24.489Z,18.75
2023-02-19T19:01:53.279Z,24.65
2023-02-19T19:04:21.951Z,20.20
2023-02-19T19:06:50.548Z,22.92
2023-02-19T19:11:47.894Z,23.42
2023-02-19T19:14:16.429Z,24.20
2023-02-19T19:19:15.822Z,25.30
2023-02-19T19:21:44.349Z,20.85
2023-02-19T19:24:13.610Z,18.88
2023-02-19T19:26:46.712Z,24.20
2023-02-19T19:29:17.392Z,24.80
2023-02-19T19:31:47.687Z,23.70
2023-02-19T19:34:16.293Z,23.88
2023-02-19T19:39:13.725Z,19.58
2023-02-19T19:41:42.196Z,23.02
2023-02-19T19:46:45.597Z,22.33
2023-02-19T19:49:19.021Z,22.48
2023-02-19T19:51:47.704Z,23.35
2023-02-19T19:54:16.729Z,23.65
2023-02-19T19:56:47.431Z,22.17
2023-02-19T19:59:18.053Z,26.13
2023-02-19T20:01:51.297Z,25.92
2023-02-19T20:04:23.148Z,22.50
2023-02-19T20:06:52.118Z,27.00
2023-02-19T20:09:25.266Z,33.75
2023-02-19T20:11:54.604Z,31.30
2023-02-19T20:14:25.309Z,34.75
2023-02-19T20:16:54.485Z,31.55
2023-02-19T20:19:24.409Z,33.78
2023-02-19T20:21:54.722Z,34.83
2023-02-19T20:24:26.117Z,33.08
2023-02-19T20:26:58.565Z,29.50
2023-02-19T20:29:27.958Z,37.05
2023-02-19T20:31:59.358Z,31.00
2023-02-19T20:34:29.543Z,31.95
2023-02-19T20:36:58.113Z,26.73
2023-02-19T20:41:58.864Z,29.95
2023-02-19T20:44:28.597Z,24.60
2023-02-19T20:46:58.616Z,28.67
2023-02-19T20:49:30.450Z,26.77
2023-02-19T20:52:00.686Z,26.67
2023-02-19T20:54:30.589Z,27.65
2023-02-19T20:57:01.290Z,24.42
2023-02-19T20:59:34.864Z,26.77
2023-02-19T21:02:03.534Z,24.10
2023-02-19T21:04:33.354Z,28.98
2023-02-19T21:07:01.904Z,24.10
2023-02-19T21:11:58.634Z,22.15
2023-02-19T21:14:28.071Z,27.80
2023-02-19T21:16:56.656Z,30.17
2023-02-19T21:21:54.815Z,30.75
2023-02-19T21:24:23.327Z,28.90
2023-02-19T21:26:51.948Z,21.98
2023-02-19T21:31:52.371Z,26.50
2023-02-19T21:34:23.009Z,27.73
2023-02-19T21:36:51.822Z,28.45
2023-02-19T21:39:23.917Z,28.20
2023-02-19T21:41:52.415Z,27.52
2023-02-19T21:46:49.769Z,20.52
2023-02-19T21:49:18.765Z,22.20
2023-02-19T21:51:48.768Z,20.98
2023-02-19T21:54:19.121Z,26.35
2023-02-19T21:56:49.566Z,18.85
2023-02-19T21:59:18.004Z,20.83
2023-02-19T22:06:44.478Z,15.50
2023-02-19T22:09:14.092Z,20.27
2023-02-19T22:11:42.760Z,20.60
2023-02-19T22:14:12.811Z,18.73
2023-02-19T22:16:41.339Z,21.58
2023-02-19T22:24:06.781Z,21.30
2023-02-19T22:26:37.494Z,19.45
2023-02-19T22:29:07.498Z,21.23
2023-02-19T22:31:37.848Z,21.75
2023-02-19T22:34:07.031Z,22.40
2023-02-19T22:36:37.335Z,23.15
2023-02-19T22:39:07.806Z,22.17
2023-02-19T22:41:36.508Z,22.63
2023-02-19T22:44:05.114Z,22.08
2023-02-19T22:46:33.714Z,23.52
2023-02-19T22:51:32.885Z,22.17
2023-02-19T22:54:01.702Z,20.67
2023-02-19T22:56:30.739Z,22.45
2023-02-19T22:58:59.637Z,21.00
2023-02-19T23:01:28.301Z,22.38
2023-02-19T23:03:58.056Z,20.83
2023-02-19T23:06:29.499Z,21.90
2023-02-19T23:08:59.800Z,23.63
2023-02-19T23:11:29.897Z,25.60
2023-02-19T23:13:59.233Z,23.63
2023-02-19T23:16:28.373Z,27.10
2023-02-19T23:18:57.029Z,23.05
2023-02-19T23:21:25.527Z,25.13
2023-02-19T23:26:23.624Z,22.40
2023-02-19T23:33:48.716Z,22.10
2023-02-19T23:36:17.800Z,20.80
2023-02-19T23:38:46.900Z,22.88
2023-02-19T23:41:18.796Z,22.95
2023-02-19T23:43:47.503Z,21.63
2023-02-19T23:46:18.372Z,23.60
2023-02-19T23:48:47.224Z,21.88
2023-02-19T23:51:15.686Z,21.08
2023-02-19T23:53:44.230Z,21.60
2023-02-19T23:56:13.031Z,24.75
2023-02-19T23:58:43.058Z,19.08
